Terminal Aerodrome Forecast
Issued by NWS St Louis, MO

Home | Current Version | Previous Version | Text Only | Print | Product List | Glossary On
Versions: 1 2 3 4 5 6 7 8 9 10 11 12 13 14 15 16 17 18 19 20 21 22 23 24 25 26
000
FTUS43 KLSX 220900 AAB
TAFSTL
TAF AMD
KSTL 220902Z 2209/2312 18005KT P6SM SCT015 BKN050 WS020/21050KT
      TEMPO 2210/2214 BKN015
     FM221400 19012KT P6SM SCT025 OVC035
     FM230900 18010KT 5SM -SHRA OVC025=

USA.gov is the U.S. government's official web portal to all federal, state and local government web resources and services.